Time;durP1;ratioP1;P1;durP2;ratioP2;P2;SDS_P1;SDS_P2;PMS_P1;PMS_P2;Temp;Humidity;BMP_temperature;BMP_pressure;BME280_temperature;BME280_humidity;BME280_pressure;Samples;Min_cycle;Max_cycle;Signal;HPM_P1;HPM_P2
2022/02/16 00:02:23;;;;;;;3.37;2.20;;;7.60;99.90;;;;;;5039029;28;20542;-82
2022/02/16 00:04:54;;;;;;;3.53;2.57;;;7.60;99.90;;;;;;5037741;28;20453;-81
2022/02/16 00:07:21;;;;;;;2.80;2.30;;;7.60;99.90;;;;;;5038918;28;20492;-82
2022/02/16 00:09:47;;;;;;;5.40;2.40;;;7.60;99.90;;;;;;5037790;28;20549;-82
2022/02/16 00:12:14;;;;;;;2.70;2.40;;;7.60;99.90;;;;;;5037119;28;20461;-82
2022/02/16 00:14:41;;;;;;;3.47;2.93;;;7.60;99.90;;;;;;5030802;28;20467;-80
2022/02/16 00:17:08;;;;;;;2.70;2.30;;;7.60;99.90;;;;;;5038502;28;20492;-82
2022/02/16 00:19:35;;;;;;;3.87;2.83;;;7.60;99.90;;;;;;5038421;28;20529;-82
2022/02/16 00:22:03;;;;;;;3.33;2.20;;;7.50;99.90;;;;;;5038749;28;20445;-83
2022/02/16 00:24:30;;;;;;;4.47;2.40;;;7.50;99.90;;;;;;5037553;28;20452;-82
2022/02/16 00:26:56;;;;;;;2.57;2.37;;;7.50;99.90;;;;;;5028934;28;20480;-82
2022/02/16 00:29:23;;;;;;;3.40;2.53;;;7.50;99.90;;;;;;5037822;28;20460;-82
2022/02/16 00:31:50;;;;;;;3.47;2.60;;;7.50;99.90;;;;;;5032555;28;20476;-82
2022/02/16 00:34:17;;;;;;;3.17;2.30;;;7.60;99.90;;;;;;5035753;28;20457;-82
2022/02/16 00:36:44;;;;;;;4.33;2.83;;;7.50;99.90;;;;;;5038691;28;20467;-82
2022/02/16 00:39:12;;;;;;;5.37;3.07;;;7.50;99.90;;;;;;5038024;28;20510;-82
2022/02/16 00:41:38;;;;;;;4.03;2.43;;;7.50;99.90;;;;;;5038246;28;20480;-82
2022/02/16 00:44:06;;;;;;;3.03;2.57;;;7.50;99.90;;;;;;5037777;28;20459;-82
2022/02/16 00:46:32;;;;;;;3.27;2.67;;;7.50;99.90;;;;;;5037762;28;21005;-81
2022/02/16 00:48:59;;;;;;;3.23;2.93;;;7.50;99.90;;;;;;5038074;28;20481;-82
2022/02/16 00:51:26;;;;;;;3.17;2.40;;;7.50;99.90;;;;;;5036901;28;20465;-82
2022/02/16 00:53:53;;;;;;;2.60;2.10;;;7.50;99.90;;;;;;5037322;28;20960;-84
2022/02/16 00:56:21;;;;;;;2.30;2.00;;;7.50;99.90;;;;;;5036794;28;20500;-82
2022/02/16 00:58:48;;;;;;;2.93;2.57;;;7.60;99.90;;;;;;5038621;28;20453;-83
2022/02/16 01:01:15;;;;;;;3.30;2.20;;;7.50;99.90;;;;;;5038385;28;20449;-83
2022/02/16 01:03:41;;;;;;;3.60;3.20;;;7.50;99.90;;;;;;5036104;28;21061;-83
2022/02/16 01:06:08;;;;;;;2.90;2.20;;;7.50;99.90;;;;;;5038677;28;20552;-83
2022/02/16 01:08:35;;;;;;;3.20;2.40;;;7.60;99.90;;;;;;5038372;28;20484;-83
2022/02/16 01:11:02;;;;;;;3.10;2.00;;;7.60;99.90;;;;;;5038481;28;20456;-83
2022/02/16 01:13:30;;;;;;;3.70;2.30;;;7.60;99.90;;;;;;5035781;28;20463;-84
2022/02/16 01:15:58;;;;;;;2.53;1.90;;;7.60;99.90;;;;;;5038446;28;20924;-83
2022/02/16 01:18:25;;;;;;;4.40;2.33;;;7.60;99.90;;;;;;5038215;28;20456;-85
2022/02/16 01:20:52;;;;;;;4.50;2.40;;;7.60;99.90;;;;;;5033593;28;20462;-84
2022/02/16 01:23:19;;;;;;;3.73;2.20;;;7.60;99.90;;;;;;5038589;28;21025;-84
2022/02/16 01:25:46;;;;;;;2.90;2.40;;;7.60;99.90;;;;;;5038838;28;20480;-81
2022/02/16 01:28:13;;;;;;;2.70;2.20;;;7.70;99.90;;;;;;5038498;28;20495;-84
2022/02/16 01:30:41;;;;;;;4.03;2.57;;;7.60;99.90;;;;;;5038628;28;20547;-83
2022/02/16 01:33:08;;;;;;;3.63;2.30;;;7.60;99.90;;;;;;5037710;28;20479;-83
2022/02/16 01:35:34;;;;;;;3.00;2.50;;;7.60;99.90;;;;;;5038143;28;20481;-82
2022/02/16 01:38:03;;;;;;;2.97;2.27;;;7.60;99.90;;;;;;5038634;28;20448;-82
2022/02/16 01:40:29;;;;;;;3.77;2.40;;;7.60;99.90;;;;;;5037000;28;20868;-82
2022/02/16 01:42:56;;;;;;;3.07;2.40;;;7.60;99.90;;;;;;5036840;28;20452;-80
2022/02/16 01:45:27;;;;;;;4.13;2.63;;;7.60;99.90;;;;;;5036906;28;20477;-82
2022/02/16 01:47:56;;;;;;;3.10;2.70;;;7.60;99.90;;;;;;5018010;28;20871;-82
2022/02/16 01:50:23;;;;;;;2.37;2.17;;;7.70;99.90;;;;;;5017758;28;20449;-82
2022/02/16 01:52:50;;;;;;;2.90;2.20;;;7.70;99.90;;;;;;5034025;28;20451;-79
2022/02/16 01:55:18;;;;;;;3.20;2.30;;;7.70;99.90;;;;;;5036053;28;20482;-82
2022/02/16 01:57:47;;;;;;;2.40;2.10;;;7.60;99.90;;;;;;5035879;28;20449;-82
2022/02/16 02:00:14;;;;;;;2.07;1.87;;;7.70;99.90;;;;;;5036692;28;20840;-82
2022/02/16 02:02:42;;;;;;;3.63;2.47;;;7.70;99.90;;;;;;5037118;28;20452;-82
2022/02/16 02:05:11;;;;;;;3.80;2.20;;;7.70;99.90;;;;;;5036154;28;20485;-80
2022/02/16 02:07:40;;;;;;;3.00;2.30;;;7.70;99.90;;;;;;5035895;28;20477;-82
2022/02/16 02:10:08;;;;;;;2.90;2.27;;;7.70;99.90;;;;;;5035036;28;20466;-82
2022/02/16 02:12:42;;;;;;;4.33;2.73;;;7.70;99.90;;;;;;5036522;28;20869;-83
2022/02/16 02:15:09;;;;;;;3.80;2.73;;;7.70;99.90;;;;;;5036589;28;20889;-82
2022/02/16 02:17:36;;;;;;;3.87;2.50;;;7.80;99.90;;;;;;5036945;28;20814;-82
2022/02/16 02:20:06;;;;;;;2.70;1.87;;;7.80;99.90;;;;;;5036614;28;20544;-81
2022/02/16 02:22:32;;;;;;;3.40;2.37;;;7.80;99.90;;;;;;5038107;28;20458;-81
2022/02/16 02:24:59;;;;;;;2.57;2.37;;;7.80;99.90;;;;;;5036142;28;20457;-83
2022/02/16 02:27:26;;;;;;;2.60;2.40;;;7.80;99.90;;;;;;5036795;28;20984;-82
2022/02/16 02:29:53;;;;;;;2.93;2.63;;;7.80;99.90;;;;;;5037302;28;20961;-83
2022/02/16 02:32:20;;;;;;;3.07;2.60;;;7.80;99.90;;;;;;5037413;28;20953;-83
2022/02/16 02:34:46;;;;;;;3.73;3.37;;;7.80;99.90;;;;;;5035542;28;20456;-83
2022/02/16 02:37:15;;;;;;;3.20;2.90;;;7.70;99.90;;;;;;5033810;28;20457;-82
2022/02/16 02:39:41;;;;;;;2.93;2.73;;;7.70;99.90;;;;;;5035116;28;20460;-83
2022/02/16 02:42:08;;;;;;;2.80;2.50;;;7.80;99.90;;;;;;5035418;28;20465;-83
2022/02/16 02:44:35;;;;;;;2.90;2.60;;;7.80;99.90;;;;;;5035681;28;20463;-83
2022/02/16 02:47:02;;;;;;;3.83;2.43;;;7.80;99.90;;;;;;5037128;28;20909;-83
2022/02/16 02:49:29;;;;;;;3.20;2.60;;;7.70;99.90;;;;;;5036694;28;20498;-83
2022/02/16 02:51:56;;;;;;;6.23;3.83;;;7.80;99.90;;;;;;5038655;28;20536;-83
2022/02/16 02:54:24;;;;;;;3.30;2.87;;;7.80;99.90;;;;;;5037515;28;20471;-83
2022/02/16 02:56:51;;;;;;;3.23;2.93;;;7.80;99.90;;;;;;5037279;28;20468;-84
2022/02/16 02:59:18;;;;;;;4.73;3.57;;;7.80;99.90;;;;;;5037501;28;20463;-84
2022/02/16 03:01:44;;;;;;;2.97;2.67;;;7.80;99.90;;;;;;5038470;28;20480;-84
2022/02/16 03:04:11;;;;;;;3.83;3.17;;;7.80;99.90;;;;;;5049621;28;20440;-84
2022/02/16 03:06:38;;;;;;;4.37;3.53;;;7.90;99.90;;;;;;5034276;28;20533;-83
2022/02/16 03:09:05;;;;;;;4.20;3.40;;;7.90;99.90;;;;;;5033543;28;20532;-82
2022/02/16 03:11:33;;;;;;;5.60;4.10;;;7.90;99.90;;;;;;5038412;28;20453;-84
2022/02/16 03:14:00;;;;;;;3.80;3.50;;;7.90;99.90;;;;;;5039632;28;20484;-83
2022/02/16 03:16:26;;;;;;;4.37;3.67;;;8.00;99.90;;;;;;5034528;28;21015;-83
2022/02/16 03:18:53;;;;;;;3.77;3.40;;;8.00;99.90;;;;;;5036060;28;20451;-83
2022/02/16 03:21:20;;;;;;;3.80;2.97;;;8.00;99.90;;;;;;5038493;28;20467;-82
2022/02/16 03:23:47;;;;;;;4.40;3.73;;;8.00;99.90;;;;;;5038891;28;20840;-83
2022/02/16 03:26:13;;;;;;;3.40;3.10;;;8.00;99.90;;;;;;5039900;28;20480;-83
2022/02/16 03:28:42;;;;;;;4.10;3.67;;;8.00;99.90;;;;;;5039617;28;20491;-82
2022/02/16 03:31:08;;;;;;;3.23;2.90;;;8.00;99.90;;;;;;5038925;28;20445;-82
2022/02/16 03:33:35;;;;;;;3.60;3.30;;;8.10;99.90;;;;;;5030874;28;20548;-82
2022/02/16 03:36:02;;;;;;;6.03;4.67;;;8.10;99.90;;;;;;5039548;28;20476;-83
2022/02/16 03:38:29;;;;;;;3.23;2.93;;;8.10;99.90;;;;;;5038831;28;20455;-82
2022/02/16 03:40:56;;;;;;;5.53;3.50;;;8.10;99.90;;;;;;5039355;28;20455;-82
2022/02/16 03:43:23;;;;;;;3.63;3.33;;;8.20;99.90;;;;;;5037520;28;20459;-79
2022/02/16 03:45:51;;;;;;;5.40;3.27;;;8.10;99.90;;;;;;5037707;28;20477;-79
2022/02/16 03:48:18;;;;;;;2.57;2.37;;;8.20;99.90;;;;;;5038121;28;20598;-81
2022/02/16 03:50:45;;;;;;;2.60;2.40;;;8.20;99.90;;;;;;5038456;28;20464;-82
2022/02/16 03:53:11;;;;;;;4.30;2.83;;;8.20;99.90;;;;;;5037413;28;20539;-80
2022/02/16 03:55:38;;;;;;;3.10;2.40;;;8.30;99.90;;;;;;5038480;28;20569;-81
2022/02/16 03:58:05;;;;;;;2.60;2.20;;;8.30;99.90;;;;;;5038357;28;20446;-80
2022/02/16 04:00:32;;;;;;;3.23;2.93;;;8.30;99.90;;;;;;5037753;28;20467;-80
2022/02/16 04:03:05;;;;;;;3.00;2.40;;;8.30;99.90;;;;;;5036815;28;20949;-79
2022/02/16 04:05:32;;;;;;;2.97;2.57;;;8.30;99.90;;;;;;5038571;28;21064;-81
2022/02/16 04:07:59;;;;;;;3.30;2.20;;;8.30;99.90;;;;;;5037702;28;20485;-80
2022/02/16 04:10:26;;;;;;;3.17;2.60;;;8.30;99.90;;;;;;5037626;28;20472;-80
2022/02/16 04:12:53;;;;;;;2.83;2.47;;;8.30;99.90;;;;;;5038364;28;20563;-80
2022/02/16 04:15:20;;;;;;;3.67;1.90;;;8.30;99.90;;;;;;5037471;28;20563;-80
2022/02/16 04:17:46;;;;;;;2.43;1.97;;;8.30;99.90;;;;;;5036614;28;21016;-80
2022/02/16 04:20:15;;;;;;;2.37;1.93;;;8.40;99.90;;;;;;5037788;28;20454;-80
2022/02/16 04:22:42;;;;;;;2.47;2.10;;;8.40;99.90;;;;;;5038473;28;20833;-80
2022/02/16 04:25:10;;;;;;;4.40;2.50;;;8.40;99.90;;;;;;5037124;28;20508;-80
2022/02/16 04:27:37;;;;;;;2.60;1.80;;;8.40;99.90;;;;;;5037670;28;20444;-80
2022/02/16 04:30:04;;;;;;;3.13;2.03;;;8.40;99.90;;;;;;5037883;28;20481;-80
2022/02/16 04:32:31;;;;;;;3.00;2.10;;;8.30;99.90;;;;;;5035886;28;20483;-80
2022/02/16 04:34:58;;;;;;;3.33;1.90;;;8.30;99.90;;;;;;5035200;28;20461;-80
2022/02/16 04:37:26;;;;;;;5.00;2.77;;;8.30;99.90;;;;;;5037586;28;20532;-81
2022/02/16 04:39:53;;;;;;;3.03;2.27;;;8.30;99.90;;;;;;5036838;28;20483;-81
2022/02/16 04:42:20;;;;;;;2.97;2.30;;;8.30;99.90;;;;;;5038987;28;20444;-81
2022/02/16 04:44:47;;;;;;;2.57;1.90;;;8.30;99.90;;;;;;5036492;28;20977;-81
2022/02/16 04:47:13;;;;;;;3.20;2.30;;;8.30;99.90;;;;;;5038747;28;20453;-81
2022/02/16 04:49:40;;;;;;;2.27;2.00;;;8.30;99.90;;;;;;5035320;28;20488;-81
2022/02/16 04:52:08;;;;;;;2.67;1.93;;;8.30;99.90;;;;;;5021159;28;20455;-83
2022/02/16 04:54:36;;;;;;;5.30;2.47;;;8.30;99.90;;;;;;5038605;28;20453;-83
2022/02/16 04:57:03;;;;;;;3.20;2.70;;;8.30;99.90;;;;;;5044553;28;20571;-82
2022/02/16 04:59:30;;;;;;;2.60;2.03;;;8.30;99.90;;;;;;5039079;28;20452;-83
2022/02/16 05:01:57;;;;;;;3.50;2.80;;;8.20;99.90;;;;;;5041921;28;20445;-83
2022/02/16 05:04:23;;;;;;;3.80;1.93;;;8.20;99.90;;;;;;5042655;28;20452;-82
2022/02/16 05:06:50;;;;;;;2.70;2.00;;;8.20;99.90;;;;;;5041156;28;20471;-82
2022/02/16 05:09:17;;;;;;;2.20;1.83;;;8.20;99.90;;;;;;5040456;28;20527;-82
2022/02/16 05:11:45;;;;;;;2.73;2.00;;;8.20;99.90;;;;;;5037949;28;20449;-81
2022/02/16 05:14:12;;;;;;;2.90;1.93;;;8.20;99.90;;;;;;5036238;28;20457;-81
2022/02/16 05:16:39;;;;;;;3.50;2.13;;;8.20;99.90;;;;;;5037219;28;20564;-81
2022/02/16 05:19:05;;;;;;;4.00;2.10;;;8.20;99.90;;;;;;5038029;28;20532;-80
2022/02/16 05:21:32;;;;;;;3.23;2.20;;;8.20;99.90;;;;;;5037247;28;20500;-80
2022/02/16 05:23:59;;;;;;;4.23;1.87;;;8.20;99.90;;;;;;5028438;28;20456;-81
2022/02/16 05:26:26;;;;;;;4.30;1.70;;;8.20;99.90;;;;;;5034547;28;20480;-80
2022/02/16 05:28:54;;;;;;;3.80;2.00;;;8.20;99.90;;;;;;5038592;28;20482;-82
2022/02/16 05:31:21;;;;;;;4.33;1.90;;;8.30;99.90;;;;;;5036876;28;20454;-82
2022/02/16 05:33:47;;;;;;;2.60;1.60;;;8.30;99.90;;;;;;5036885;28;20489;-81
2022/02/16 05:36:14;;;;;;;2.87;1.90;;;8.20;99.90;;;;;;5036974;28;20477;-81
2022/02/16 05:38:41;;;;;;;3.30;2.20;;;8.20;99.90;;;;;;5044596;28;20445;-81
2022/02/16 05:41:08;;;;;;;2.80;1.70;;;8.20;99.90;;;;;;5025606;28;20541;-81
2022/02/16 05:43:35;;;;;;;4.10;2.20;;;8.20;99.90;;;;;;5016995;28;20458;-81
2022/02/16 05:46:03;;;;;;;4.30;2.07;;;8.20;99.90;;;;;;5018556;28;20474;-82
2022/02/16 05:48:30;;;;;;;2.20;1.50;;;8.30;99.90;;;;;;5019067;28;20460;-82
2022/02/16 05:50:57;;;;;;;4.17;1.93;;;8.30;99.90;;;;;;5017822;28;20492;-80
2022/02/16 05:53:24;;;;;;;2.30;1.67;;;8.30;99.90;;;;;;5018052;28;20446;-81
2022/02/16 05:55:51;;;;;;;1.80;1.30;;;8.30;99.90;;;;;;5019949;28;20479;-81
2022/02/16 05:58:17;;;;;;;3.60;2.00;;;8.20;99.90;;;;;;5036227;28;20469;-80
2022/02/16 06:00:44;;;;;;;3.20;1.50;;;8.30;99.90;;;;;;5038643;28;20450;-80
2022/02/16 06:03:12;;;;;;;3.80;1.60;;;8.30;99.90;;;;;;5035785;28;20465;-81
2022/02/16 06:05:39;;;;;;;3.00;1.77;;;8.30;99.90;;;;;;5037047;28;20480;-81
2022/02/16 06:08:06;;;;;;;2.17;1.27;;;8.30;99.90;;;;;;5037719;28;20490;-80
2022/02/16 06:10:33;;;;;;;2.27;1.63;;;8.30;99.90;;;;;;5038072;28;20486;-80
2022/02/16 06:13:00;;;;;;;1.90;1.30;;;8.30;99.90;;;;;;5032895;28;20450;-79
2022/02/16 06:15:28;;;;;;;3.60;1.83;;;8.40;99.90;;;;;;5019061;28;20494;-80
2022/02/16 06:17:54;;;;;;;2.10;1.10;;;8.40;99.90;;;;;;5035665;28;20454;-80
2022/02/16 06:20:23;;;;;;;1.90;1.20;;;8.40;99.90;;;;;;5037398;28;21147;-79
2022/02/16 06:22:52;;;;;;;2.10;1.27;;;8.40;99.90;;;;;;5018828;28;20462;-77
2022/02/16 06:25:19;;;;;;;2.00;1.13;;;8.40;99.90;;;;;;5018254;28;20568;-79
2022/02/16 06:27:46;;;;;;;2.33;1.20;;;8.40;99.90;;;;;;5037288;28;20885;-79
2022/02/16 06:30:13;;;;;;;2.83;1.10;;;8.50;99.90;;;;;;5037687;28;20856;-79
2022/02/16 06:32:40;;;;;;;1.80;1.17;;;8.50;99.90;;;;;;5039487;28;20462;-80
2022/02/16 06:35:08;;;;;;;3.03;1.00;;;8.50;99.90;;;;;;5037386;28;20473;-80
2022/02/16 06:37:36;;;;;;;2.43;0.80;;;8.50;99.90;;;;;;5039497;28;20506;-80
2022/02/16 06:40:03;;;;;;;1.60;0.70;;;8.50;99.90;;;;;;5037326;28;20456;-81
2022/02/16 06:42:30;;;;;;;2.47;0.97;;;8.50;99.90;;;;;;5036786;28;20465;-81
2022/02/16 06:44:57;;;;;;;1.47;0.70;;;8.50;99.90;;;;;;5036191;28;20517;-80
2022/02/16 06:47:23;;;;;;;1.77;0.73;;;8.50;99.90;;;;;;5037614;28;20455;-80
2022/02/16 06:49:50;;;;;;;3.33;0.90;;;8.60;99.90;;;;;;5038423;28;20483;-80
2022/02/16 06:52:18;;;;;;;2.50;1.20;;;8.50;99.90;;;;;;5040203;28;20450;-80
2022/02/16 06:54:46;;;;;;;1.90;1.10;;;8.50;99.90;;;;;;5038641;28;20454;-80
2022/02/16 06:57:13;;;;;;;1.50;0.80;;;8.50;99.90;;;;;;5043911;28;20478;-82
2022/02/16 06:59:40;;;;;;;2.20;1.40;;;8.50;99.90;;;;;;5043513;28;20464;-80
2022/02/16 07:02:07;;;;;;;2.83;1.00;;;8.60;99.90;;;;;;5041657;28;20520;-79
2022/02/16 07:04:34;;;;;;;2.30;1.50;;;8.60;99.90;;;;;;5041029;28;20461;-79
2022/02/16 07:07:00;;;;;;;1.93;0.80;;;8.60;99.90;;;;;;5041644;28;20480;-79
2022/02/16 07:09:27;;;;;;;2.10;1.30;;;8.60;99.90;;;;;;5043956;28;20946;-78
2022/02/16 07:11:56;;;;;;;2.07;1.10;;;8.50;99.90;;;;;;5044318;28;20454;-77
2022/02/16 07:14:23;;;;;;;1.80;1.10;;;8.50;99.90;;;;;;5039946;28;20949;-80
2022/02/16 07:16:50;;;;;;;4.67;1.30;;;8.50;99.90;;;;;;5044281;28;20482;-79
2022/02/16 07:19:19;;;;;;;2.60;1.40;;;8.50;99.90;;;;;;5042436;28;20477;-79
2022/02/16 07:21:46;;;;;;;2.20;1.13;;;8.50;99.90;;;;;;5042922;28;20994;-80
2022/02/16 07:24:13;;;;;;;1.90;1.10;;;8.60;99.90;;;;;;5041677;28;20537;-80
2022/02/16 07:26:40;;;;;;;3.07;1.37;;;8.60;99.90;;;;;;5042064;28;20469;-79
2022/02/16 07:29:08;;;;;;;2.37;1.00;;;8.60;99.90;;;;;;5041233;28;20453;-80
2022/02/16 07:31:35;;;;;;;2.20;1.30;;;8.70;99.90;;;;;;5040646;28;20556;-80
2022/02/16 07:34:01;;;;;;;3.10;1.40;;;8.60;99.90;;;;;;5040198;28;20462;-81
2022/02/16 07:36:28;;;;;;;2.43;1.07;;;8.70;99.90;;;;;;5040036;28;20488;-81
2022/02/16 07:38:55;;;;;;;2.80;1.10;;;8.60;99.90;;;;;;5049643;28;20455;-81
2022/02/16 07:41:22;;;;;;;6.37;3.97;;;8.70;99.90;;;;;;5040379;28;22311;-78
2022/02/16 07:43:51;;;;;;;3.67;2.43;;;8.60;99.90;;;;;;5041637;28;20484;-81
2022/02/16 07:46:20;;;;;;;7.20;1.40;;;8.70;99.90;;;;;;5044612;28;20465;-80
2022/02/16 07:48:48;;;;;;;2.00;1.10;;;8.70;99.90;;;;;;5035903;28;21058;-79
2022/02/16 07:51:17;;;;;;;5.73;1.00;;;8.80;99.90;;;;;;5042144;28;20937;-80
2022/02/16 07:53:46;;;;;;;1.77;1.17;;;8.80;99.90;;;;;;5045199;28;20450;-80
2022/02/16 07:56:13;;;;;;;1.73;1.30;;;8.80;99.90;;;;;;5046407;28;20472;-79
2022/02/16 07:58:40;;;;;;;1.70;1.00;;;8.80;99.90;;;;;;5039791;28;20632;-81
2022/02/16 08:01:06;;;;;;;3.23;1.23;;;8.90;99.90;;;;;;5054794;28;20962;-80
2022/02/16 08:03:34;;;;;;;2.37;1.00;;;8.90;99.90;;;;;;5033853;28;20468;-82
2022/02/16 08:06:03;;;;;;;1.73;1.10;;;8.90;99.90;;;;;;5033476;28;21112;-79
2022/02/16 08:08:31;;;;;;;2.00;1.27;;;9.00;99.90;;;;;;5041153;28;20466;-80
2022/02/16 08:10:58;;;;;;;2.20;1.00;;;8.90;99.90;;;;;;5045657;28;20567;-81
2022/02/16 08:13:24;;;;;;;2.17;1.50;;;8.90;99.90;;;;;;5043108;28;20458;-81
2022/02/16 08:15:52;;;;;;;1.80;1.00;;;8.90;99.90;;;;;;5035909;28;21100;-80
2022/02/16 08:18:19;;;;;;;2.40;1.10;;;8.90;99.90;;;;;;5033268;28;20516;-79
2022/02/16 08:20:47;;;;;;;3.30;1.47;;;8.90;99.90;;;;;;5036250;28;20450;-79
2022/02/16 08:23:14;;;;;;;4.63;1.50;;;8.90;99.90;;;;;;5035562;28;20457;-79
2022/02/16 08:25:41;;;;;;;2.17;1.20;;;8.90;99.90;;;;;;5035544;28;20480;-81
2022/02/16 08:28:09;;;;;;;1.90;1.17;;;8.90;99.90;;;;;;5029119;28;20459;-81
2022/02/16 08:30:36;;;;;;;2.80;1.30;;;9.00;99.90;;;;;;5031633;28;20484;-78
2022/02/16 08:33:03;;;;;;;2.63;1.47;;;9.10;99.90;;;;;;5033939;28;20460;-81
2022/02/16 08:35:30;;;;;;;2.80;1.50;;;9.10;99.90;;;;;;5039962;28;20563;-79
2022/02/16 08:37:58;;;;;;;3.77;1.50;;;9.10;99.90;;;;;;5029143;28;20451;-79
2022/02/16 08:40:26;;;;;;;2.63;1.77;;;9.10;99.90;;;;;;5032517;28;22498;-79
2022/02/16 08:42:52;;;;;;;2.20;2.00;;;9.20;99.90;;;;;;5027604;28;20520;-80
2022/02/16 08:45:19;;;;;;;2.30;1.80;;;9.20;99.90;;;;;;5027245;28;20493;-81
2022/02/16 08:47:47;;;;;;;2.30;1.90;;;9.20;99.90;;;;;;5033837;28;20469;-80
2022/02/16 08:50:14;;;;;;;2.73;1.80;;;9.30;99.90;;;;;;5028295;28;20510;-80
2022/02/16 08:52:40;;;;;;;2.10;1.80;;;9.30;99.90;;;;;;5031057;28;20455;-80
2022/02/16 08:55:10;;;;;;;2.40;2.20;;;9.40;99.90;;;;;;5025406;28;21072;-82
2022/02/16 08:57:39;;;;;;;5.23;2.13;;;9.50;99.90;;;;;;5028147;28;20449;-82
2022/02/16 09:00:08;;;;;;;1.90;1.70;;;9.40;99.90;;;;;;5031754;28;20457;-81
2022/02/16 09:02:35;;;;;;;2.50;2.10;;;9.40;99.90;;;;;;5028746;28;20487;-79
2022/02/16 09:05:02;;;;;;;3.83;1.77;;;9.50;99.90;;;;;;5033910;28;20477;-82
2022/02/16 09:07:30;;;;;;;2.70;1.70;;;9.60;99.90;;;;;;5034603;28;20537;-80
2022/02/16 09:09:57;;;;;;;3.40;1.93;;;9.60;99.90;;;;;;5032432;28;20479;-80
2022/02/16 09:12:25;;;;;;;2.33;1.77;;;9.70;99.90;;;;;;5034923;28;20458;-79
2022/02/16 09:14:52;;;;;;;2.30;1.80;;;9.70;99.90;;;;;;5030979;28;20500;-81
2022/02/16 09:17:19;;;;;;;2.90;2.07;;;9.70;99.90;;;;;;5033333;28;20530;-80
2022/02/16 09:19:46;;;;;;;2.23;1.67;;;9.70;99.90;;;;;;5034708;28;20497;-81
2022/02/16 09:22:13;;;;;;;3.13;1.70;;;9.70;99.90;;;;;;5033447;28;20454;-80
2022/02/16 09:24:55;;;;;;;2.50;1.90;;;9.70;99.90;;;;;;5032373;28;20529;-80
2022/02/16 09:27:23;;;;;;;2.40;1.60;;;9.70;99.90;;;;;;5035257;28;20455;-81
2022/02/16 09:29:51;;;;;;;3.03;1.80;;;9.70;99.90;;;;;;5032894;28;20524;-80
2022/02/16 09:32:18;;;;;;;2.10;1.43;;;9.70;99.90;;;;;;5035535;28;20946;-81
2022/02/16 09:34:46;;;;;;;1.60;1.00;;;9.70;99.90;;;;;;5034780;28;21070;-81
2022/02/16 09:37:12;;;;;;;1.70;1.20;;;9.80;99.90;;;;;;5034828;28;20454;-80
2022/02/16 09:39:39;;;;;;;3.40;2.30;;;9.90;99.90;;;;;;5034553;28;20573;-80
2022/02/16 09:42:06;;;;;;;4.53;2.13;;;10.00;99.90;;;;;;5032640;28;20461;-79
2022/02/16 09:44:38;;;;;;;2.30;1.83;;;10.00;99.90;;;;;;5033627;28;20466;-81
2022/02/16 09:47:08;;;;;;;1.73;1.03;;;10.10;99.90;;;;;;5026973;28;20482;-80
2022/02/16 09:49:38;;;;;;;1.90;0.80;;;10.10;99.90;;;;;;5034649;28;20482;-82
2022/02/16 09:52:06;;;;;;;2.00;1.10;;;10.20;99.90;;;;;;5032089;28;20818;-80
2022/02/16 09:54:34;;;;;;;1.53;0.90;;;10.30;99.90;;;;;;5034454;28;20523;-80
2022/02/16 09:57:01;;;;;;;3.40;0.90;;;10.30;99.90;;;;;;5034102;28;20471;-80
2022/02/16 09:59:27;;;;;;;2.47;0.90;;;10.40;99.90;;;;;;5033379;28;20567;-80
2022/02/16 10:01:57;;;;;;;1.60;0.80;;;10.50;99.90;;;;;;5029424;28;20451;-80
2022/02/16 10:04:26;;;;;;;1.60;0.80;;;10.50;99.90;;;;;;5032569;28;20456;-81
2022/02/16 10:06:53;;;;;;;2.47;0.90;;;10.50;99.90;;;;;;5025382;28;20997;-79
2022/02/16 10:09:26;;;;;;;2.93;0.90;;;10.50;99.90;;;;;;5029922;28;20955;-79
2022/02/16 10:11:57;;;;;;;1.80;1.10;;;10.50;99.90;;;;;;5029396;28;20956;-79
2022/02/16 10:14:27;;;;;;;1.43;0.80;;;10.50;99.90;;;;;;5034354;28;20470;-78
2022/02/16 10:16:54;;;;;;;1.70;1.00;;;10.60;99.90;;;;;;5033383;28;20570;-81
2022/02/16 10:19:20;;;;;;;2.53;0.90;;;10.70;99.90;;;;;;5033450;28;20469;-80
2022/02/16 10:22:05;;;;;;;1.93;1.07;;;10.80;99.90;;;;;;5032820;28;20838;-80
2022/02/16 10:24:32;;;;;;;1.63;0.90;;;10.70;99.90;;;;;;5034118;28;20451;-79
2022/02/16 10:26:59;;;;;;;1.70;1.10;;;10.80;99.90;;;;;;5015433;28;20519;-80
2022/02/16 10:29:28;;;;;;;2.73;1.30;;;10.80;99.90;;;;;;5035103;28;20455;-79
2022/02/16 10:31:57;;;;;;;2.00;1.30;;;10.80;99.90;;;;;;5039108;28;20503;-79
2022/02/16 10:34:24;;;;;;;1.77;1.23;;;10.90;99.90;;;;;;5033168;28;20467;-80
2022/02/16 10:36:51;;;;;;;2.27;1.10;;;11.10;99.90;;;;;;5037884;28;20564;-80
2022/02/16 10:39:20;;;;;;;1.90;1.13;;;11.10;99.90;;;;;;5039015;28;20456;-80
2022/02/16 10:41:49;;;;;;;2.90;1.30;;;11.10;99.90;;;;;;5036750;28;20456;-79
2022/02/16 10:44:18;;;;;;;2.70;1.30;;;11.00;99.90;;;;;;5038149;28;20514;-79
2022/02/16 10:46:45;;;;;;;3.03;1.30;;;11.00;99.90;;;;;;5038565;28;20478;-80
2022/02/16 10:49:13;;;;;;;1.77;1.33;;;11.10;99.90;;;;;;5038936;28;20463;-79
2022/02/16 10:51:41;;;;;;;2.60;1.23;;;11.10;99.90;;;;;;5038974;28;20496;-79
2022/02/16 10:54:12;;;;;;;2.17;1.67;;;11.10;99.90;;;;;;5037378;28;20962;-79
2022/02/16 10:56:41;;;;;;;2.20;1.40;;;11.20;99.90;;;;;;5033388;28;20484;-78
2022/02/16 10:59:08;;;;;;;2.10;1.40;;;11.10;99.90;;;;;;5030336;28;20452;-82
2022/02/16 11:01:35;;;;;;;1.60;1.00;;;11.10;99.90;;;;;;5037468;28;20458;-79
2022/02/16 11:04:05;;;;;;;2.73;1.27;;;11.20;99.90;;;;;;5034011;28;20461;-79
2022/02/16 11:06:34;;;;;;;1.63;1.37;;;11.20;99.90;;;;;;5036349;28;20479;-78
2022/02/16 11:09:02;;;;;;;1.70;1.50;;;11.30;99.90;;;;;;5030752;28;20546;-79
2022/02/16 11:11:29;;;;;;;2.73;1.27;;;11.40;99.90;;;;;;5035854;28;20578;-78
2022/02/16 11:14:03;;;;;;;3.23;1.27;;;11.40;99.90;;;;;;5030804;28;20463;-78
2022/02/16 11:16:30;;;;;;;2.83;1.17;;;11.50;99.90;;;;;;5033797;28;20501;-79
2022/02/16 11:18:59;;;;;;;1.70;1.00;;;11.50;99.90;;;;;;5030191;28;20463;-80
2022/02/16 11:21:28;;;;;;;1.80;1.33;;;11.50;99.90;;;;;;5030614;28;20452;-79
2022/02/16 11:23:58;;;;;;;1.60;0.90;;;11.50;99.90;;;;;;5028466;28;20980;-78
2022/02/16 11:26:35;;;;;;;1.50;1.00;;;11.60;99.90;;;;;;5032184;28;20489;-78
2022/02/16 11:29:08;;;;;;;2.53;1.23;;;11.80;99.90;;;;;;5031285;28;20463;-80
2022/02/16 11:31:37;;;;;;;6.77;0.97;;;11.90;99.90;;;;;;5034141;28;20531;-78
2022/02/16 11:34:15;;;;;;;2.07;1.00;;;11.90;99.90;;;;;;5033549;28;20460;-78
2022/02/16 11:36:53;;;;;;;1.50;0.90;;;12.00;99.90;;;;;;5029946;28;20483;-79
2022/02/16 11:39:39;;;;;;;1.80;0.90;;;12.10;99.90;;;;;;5038800;28;20455;-80
2022/02/16 11:42:06;;;;;;;1.70;0.90;;;12.00;99.90;;;;;;5046491;28;20527;-80
2022/02/16 11:45:02;;;;;;;2.37;1.33;;;12.10;99.90;;;;;;5041346;28;20454;-78
2022/02/16 11:47:54;;;;;;;3.20;1.03;;;12.10;99.90;;;;;;5030566;28;20979;-78
2022/02/16 11:50:39;;;;;;;1.87;0.90;;;12.10;99.90;;;;;;5042343;28;21009;-79
2022/02/16 11:53:08;;;;;;;1.50;0.90;;;12.10;99.90;;;;;;5036108;28;20842;-79
2022/02/16 11:55:36;;;;;;;2.17;1.10;;;12.10;99.90;;;;;;5031506;28;20476;-79
2022/02/16 11:58:25;;;;;;;2.37;1.03;;;12.10;99.90;;;;;;5049491;28;20459;-80
2022/02/16 12:01:19;;;;;;;2.07;1.20;;;12.20;99.90;;;;;;5036665;28;20452;-79
2022/02/16 12:03:57;;;;;;;1.80;1.00;;;12.20;99.90;;;;;;5037361;28;20452;-78
2022/02/16 12:06:24;;;;;;;2.37;1.17;;;12.20;99.90;;;;;;5043256;28;20483;-80
2022/02/16 12:09:07;;;;;;;1.57;1.00;;;12.20;99.90;;;;;;5048856;28;20455;-80
2022/02/16 12:11:40;;;;;;;1.60;1.10;;;12.20;99.90;;;;;;5040128;28;21008;-80
2022/02/16 12:14:14;;;;;;;1.50;1.00;;;12.10;99.90;;;;;;5045862;28;20470;-79
2022/02/16 12:16:45;;;;;;;1.70;1.03;;;12.10;99.90;;;;;;5036236;28;20514;-79
2022/02/16 12:19:15;;;;;;;2.10;1.10;;;12.00;99.90;;;;;;5036130;28;20467;-82
2022/02/16 12:21:52;;;;;;;1.80;1.27;;;12.00;99.90;;;;;;5042662;28;20455;-81
2022/02/16 12:24:29;;;;;;;1.60;1.27;;;12.00;99.90;;;;;;5034772;28;20455;-81
2022/02/16 12:27:04;;;;;;;2.40;1.90;;;12.00;99.90;;;;;;5036076;28;20478;-80
2022/02/16 12:29:39;;;;;;;1.87;1.20;;;12.00;99.90;;;;;;5036510;28;20836;-80
2022/02/16 12:32:08;;;;;;;1.87;1.20;;;12.10;99.90;;;;;;5035183;28;20483;-79
2022/02/16 12:34:37;;;;;;;2.77;2.40;;;12.10;99.90;;;;;;5038918;28;20544;-80
2022/02/16 12:37:13;;;;;;;1.90;1.40;;;12.10;99.90;;;;;;5043580;28;20533;-80
2022/02/16 12:39:40;;;;;;;2.43;1.30;;;12.00;99.90;;;;;;5047090;28;20459;-80
2022/02/16 12:42:13;;;;;;;2.10;1.47;;;12.00;99.90;;;;;;5041929;28;20498;-82
2022/02/16 12:44:42;;;;;;;2.63;1.23;;;12.10;99.90;;;;;;5046772;28;20477;-81
2022/02/16 12:47:13;;;;;;;1.93;1.33;;;12.00;99.90;;;;;;5045367;28;21013;-81
2022/02/16 12:49:42;;;;;;;3.10;1.53;;;12.00;99.90;;;;;;5045996;28;20480;-82
2022/02/16 12:52:12;;;;;;;5.30;1.57;;;12.10;99.90;;;;;;5036775;28;20507;-81
2022/02/16 12:54:43;;;;;;;3.63;1.40;;;12.10;99.90;;;;;;5030096;28;20463;-81
2022/02/16 12:57:14;;;;;;;2.20;1.47;;;12.10;99.90;;;;;;5035370;28;20567;-82
2022/02/16 13:02:38;;;;;;;2.53;1.40;;;12.10;99.90;;;;;;5017475;28;20416;-81
2022/02/16 13:05:12;;;;;;;4.13;1.50;;;12.10;99.90;;;;;;5041960;28;20539;-81